createdAt,value
2022-12-20T00:01:35.891Z,6.68
2022-12-20T00:04:08.244Z,6.60
2022-12-20T00:06:36.636Z,6.97
2022-12-20T00:09:06.757Z,8.25
2022-12-20T00:11:34.801Z,5.80
2022-12-20T00:14:02.323Z,6.20
2022-12-20T00:16:30.497Z,8.57
2022-12-20T00:19:02.863Z,6.80
2022-12-20T00:21:31.621Z,7.00
2022-12-20T00:23:59.692Z,7.32
2022-12-20T00:26:30.257Z,6.55
2022-12-20T00:28:58.639Z,6.45
2022-12-20T00:33:57.038Z,22.65
2022-12-20T00:36:25.925Z,6.70
2022-12-20T00:38:55.779Z,8.10
2022-12-20T00:41:26.489Z,7.05
2022-12-20T00:43:54.461Z,8.38
2022-12-20T00:46:25.092Z,14.63
2022-12-20T00:48:54.710Z,8.13
2022-12-20T00:51:25.823Z,11.25
2022-12-20T00:53:54.000Z,11.23
2022-12-20T00:56:22.476Z,8.70
2022-12-20T00:58:50.005Z,7.72
2022-12-20T01:01:24.975Z,4.03
2022-12-20T01:03:53.961Z,5.95
2022-12-20T01:08:49.462Z,9.40
2022-12-20T01:11:31.990Z,13.95
2022-12-20T01:14:03.838Z,7.82
2022-12-20T01:16:43.485Z,11.82
2022-12-20T01:19:18.354Z,19.27
2022-12-20T01:21:52.345Z,18.83
2022-12-20T01:24:20.817Z,17.45
2022-12-20T01:26:48.862Z,10.20
2022-12-20T01:29:17.679Z,8.10
2022-12-20T01:31:45.783Z,9.05
2022-12-20T01:34:13.718Z,10.57
2022-12-20T01:36:41.267Z,7.53
2022-12-20T01:39:15.584Z,12.45
2022-12-20T01:41:45.205Z,8.75
2022-12-20T01:44:18.754Z,7.97
2022-12-20T01:46:48.449Z,11.07
2022-12-20T01:49:29.398Z,9.25
2022-12-20T01:52:12.215Z,16.10
2022-12-20T01:54:52.492Z,11.48
2022-12-20T01:57:27.704Z,11.00
2022-12-20T02:02:24.775Z,8.57
2022-12-20T02:04:52.401Z,8.85
2022-12-20T02:07:26.030Z,7.38
2022-12-20T02:09:58.701Z,10.98
2022-12-20T02:12:39.052Z,11.05
2022-12-20T02:15:23.198Z,9.63
2022-12-20T02:18:05.608Z,10.25
2022-12-20T02:21:11.453Z,9.45
2022-12-20T02:23:54.477Z,7.68
2022-12-20T02:26:40.673Z,13.88
2022-12-20T02:29:36.033Z,9.10
2022-12-20T02:32:17.369Z,9.60
2022-12-20T02:34:47.180Z,7.35
2022-12-20T02:37:14.988Z,11.73
2022-12-20T02:39:44.853Z,8.60
2022-12-20T02:42:15.616Z,8.63
2022-12-20T02:45:07.993Z,8.98
2022-12-20T02:47:41.242Z,7.57
2022-12-20T02:50:10.568Z,9.63
2022-12-20T02:52:42.375Z,8.82
2022-12-20T02:55:11.041Z,8.85
2022-12-20T02:57:48.225Z,12.93
2022-12-20T03:00:20.354Z,10.88
2022-12-20T03:03:09.117Z,9.38
2022-12-20T03:05:44.757Z,8.07
2022-12-20T03:08:14.096Z,7.30
2022-12-20T03:10:41.655Z,7.13
2022-12-20T03:13:09.276Z,7.70
2022-12-20T03:15:42.040Z,7.45
2022-12-20T03:18:09.644Z,14.30
2022-12-20T03:20:37.601Z,12.25
2022-12-20T03:25:49.855Z,8.45
2022-12-20T03:28:28.553Z,9.50
2022-12-20T03:30:57.734Z,9.25
2022-12-20T03:33:25.206Z,8.05
2022-12-20T03:35:52.944Z,11.43
2022-12-20T03:38:22.541Z,8.18
2022-12-20T03:40:50.016Z,7.82
2022-12-20T03:43:20.938Z,9.82
2022-12-20T03:45:48.680Z,11.05
2022-12-20T03:48:16.177Z,10.82
2022-12-20T03:50:43.727Z,8.82
2022-12-20T03:53:11.203Z,6.00
2022-12-20T03:58:21.214Z,8.35
2022-12-20T04:00:50.425Z,6.75
2022-12-20T04:03:36.440Z,8.30
2022-12-20T04:06:05.316Z,6.68
2022-12-20T04:08:32.917Z,10.90
2022-12-20T04:11:18.583Z,6.70
2022-12-20T04:16:26.125Z,7.95
2022-12-20T04:18:55.942Z,8.55
2022-12-20T04:21:26.767Z,9.60
2022-12-20T04:23:57.778Z,6.43
2022-12-20T04:26:32.231Z,8.63
2022-12-20T04:29:01.391Z,6.07
2022-12-20T04:31:29.336Z,9.68
2022-12-20T04:33:57.530Z,10.63
2022-12-20T04:36:28.496Z,7.32
2022-12-20T04:38:57.817Z,7.53
2022-12-20T04:41:27.310Z,11.32
2022-12-20T04:44:00.200Z,15.10
2022-12-20T04:46:36.000Z,20.75
2022-12-20T04:49:05.229Z,10.88
2022-12-20T04:51:35.145Z,14.07
2022-12-20T04:54:03.142Z,12.93
2022-12-20T04:56:45.561Z,9.23
2022-12-20T04:59:21.519Z,13.15
2022-12-20T05:02:10.060Z,8.98
2022-12-20T05:05:04.856Z,11.63
2022-12-20T05:07:40.073Z,6.28
2022-12-20T05:10:09.257Z,8.35
2022-12-20T05:12:41.129Z,10.68
2022-12-20T05:15:15.669Z,11.57
2022-12-20T05:17:44.949Z,5.63
2022-12-20T05:20:14.523Z,5.68
2022-12-20T05:23:04.140Z,8.80
2022-12-20T05:25:51.090Z,5.70
2022-12-20T05:28:21.103Z,10.00
2022-12-20T05:30:49.665Z,6.88
2022-12-20T05:33:17.686Z,5.88
2022-12-20T05:35:48.719Z,6.05
2022-12-20T05:38:17.927Z,6.03
2022-12-20T05:40:50.267Z,8.95
2022-12-20T05:43:22.014Z,7.82
2022-12-20T05:45:55.689Z,9.13
2022-12-20T05:48:34.456Z,9.60
2022-12-20T05:51:02.538Z,5.65
2022-12-20T05:53:32.224Z,9.15
2022-12-20T05:56:03.572Z,9.63
2022-12-20T05:58:36.391Z,9.38
2022-12-20T06:01:09.205Z,8.38
2022-12-20T06:03:40.698Z,9.95
2022-12-20T06:09:17.318Z,6.45
2022-12-20T06:11:53.551Z,6.90
2022-12-20T06:14:22.707Z,6.18
2022-12-20T06:16:54.269Z,6.93
2022-12-20T06:19:23.229Z,14.73
2022-12-20T06:21:54.572Z,13.02
2022-12-20T06:24:33.230Z,5.45
2022-12-20T06:27:04.737Z,8.50
2022-12-20T06:29:32.944Z,9.48
2022-12-20T06:32:08.594Z,8.00
2022-12-20T06:34:40.556Z,25.30
2022-12-20T06:37:11.009Z,6.30
2022-12-20T06:39:39.161Z,5.13
2022-12-20T06:42:09.044Z,9.32
2022-12-20T06:44:42.566Z,6.85
2022-12-20T06:47:11.254Z,8.40
2022-12-20T06:49:39.806Z,14.60
2022-12-20T06:52:16.542Z,10.38
2022-12-20T06:54:48.829Z,8.25
2022-12-20T06:57:16.929Z,7.18
2022-12-20T06:59:49.558Z,5.63
2022-12-20T07:02:18.233Z,7.18
2022-12-20T07:07:14.939Z,10.00
2022-12-20T07:09:43.888Z,7.75
2022-12-20T07:12:12.796Z,13.45
2022-12-20T07:17:26.106Z,6.50
2022-12-20T07:19:54.004Z,7.35
2022-12-20T07:22:22.845Z,8.45
2022-12-20T07:24:53.600Z,9.57
2022-12-20T07:27:25.068Z,7.28
2022-12-20T07:29:56.800Z,8.32
2022-12-20T07:32:29.944Z,5.45
2022-12-20T07:34:59.470Z,7.88
2022-12-20T07:37:30.234Z,5.70
2022-12-20T07:39:59.741Z,9.02
2022-12-20T07:42:33.887Z,6.50
2022-12-20T07:45:04.759Z,9.20
2022-12-20T07:47:32.583Z,7.05
2022-12-20T07:50:00.509Z,6.38
2022-12-20T07:52:30.003Z,8.32
2022-12-20T07:55:02.548Z,8.10
2022-12-20T07:57:44.994Z,8.27
2022-12-20T08:00:15.406Z,5.93
2022-12-20T08:03:06.524Z,11.13
2022-12-20T08:05:52.443Z,8.95
2022-12-20T08:12:13.119Z,6.43
2022-12-20T08:14:43.531Z,9.35
2022-12-20T08:17:12.408Z,6.97
2022-12-20T08:19:45.190Z,6.15
2022-12-20T08:22:21.577Z,8.23
2022-12-20T08:24:53.663Z,9.32
2022-12-20T08:27:47.721Z,9.18
2022-12-20T08:30:18.453Z,15.63
2022-12-20T08:36:44.924Z,6.90
2022-12-20T08:42:03.067Z,7.45
2022-12-20T08:44:31.347Z,5.88
2022-12-20T08:47:00.410Z,6.65
2022-12-20T08:52:44.538Z,7.20
2022-12-20T08:55:15.868Z,7.38
2022-12-20T08:57:43.660Z,6.60
2022-12-20T09:00:12.395Z,8.98
2022-12-20T09:02:42.109Z,5.93
2022-12-20T09:05:11.808Z,8.15
2022-12-20T09:07:43.942Z,10.75
2022-12-20T09:10:13.600Z,11.32
2022-12-20T09:12:41.803Z,8.10
2022-12-20T09:15:10.178Z,8.40
2022-12-20T09:17:43.772Z,9.25
2022-12-20T09:20:12.710Z,8.60
2022-12-20T09:22:41.595Z,7.75
2022-12-20T09:25:10.273Z,9.05
2022-12-20T09:27:57.524Z,10.07
2022-12-20T09:30:33.502Z,7.25
2022-12-20T09:33:09.715Z,9.57
2022-12-20T09:35:46.044Z,8.00
2022-12-20T09:38:15.289Z,6.70
2022-12-20T09:40:54.353Z,6.68
2022-12-20T09:43:24.504Z,9.15
2022-12-20T09:45:57.787Z,7.40
2022-12-20T09:48:32.162Z,7.68
2022-12-20T09:51:11.818Z,8.05
2022-12-20T09:53:57.704Z,10.50
2022-12-20T09:56:30.856Z,9.45
2022-12-20T09:59:13.768Z,6.18
2022-12-20T10:01:47.649Z,7.03
2022-12-20T10:04:26.583Z,8.82
2022-12-20T10:07:03.059Z,9.23
2022-12-20T10:09:59.954Z,11.15
2022-12-20T10:12:41.344Z,6.28
2022-12-20T10:17:54.913Z,5.57
2022-12-20T10:20:55.842Z,7.45
2022-12-20T10:23:41.181Z,5.63
2022-12-20T10:26:11.592Z,6.30
2022-12-20T10:28:42.177Z,7.03
2022-12-20T10:31:15.582Z,6.38
2022-12-20T10:33:45.130Z,6.57
2022-12-20T10:36:26.249Z,8.18
2022-12-20T10:38:56.793Z,7.93
2022-12-20T10:41:30.575Z,9.07
2022-12-20T10:44:30.403Z,7.68
2022-12-20T10:47:03.550Z,5.68
2022-12-20T10:49:35.179Z,7.45
2022-12-20T10:52:10.205Z,5.85
2022-12-20T10:54:44.727Z,7.35
2022-12-20T10:57:26.567Z,8.50
2022-12-20T10:59:54.953Z,8.15
2022-12-20T11:02:25.517Z,7.20
2022-12-20T11:05:23.045Z,6.00
2022-12-20T11:10:47.810Z,6.50
2022-12-20T11:13:27.138Z,7.32
2022-12-20T11:16:02.155Z,6.80
2022-12-20T11:18:39.235Z,5.15
2022-12-20T11:21:16.235Z,8.52
2022-12-20T11:24:09.460Z,7.90
2022-12-20T11:27:15.947Z,9.68
2022-12-20T11:30:08.598Z,7.72
2022-12-20T11:32:48.382Z,7.65
2022-12-20T11:35:40.940Z,7.47
2022-12-20T11:38:44.391Z,6.32
2022-12-20T11:41:12.566Z,6.07
2022-12-20T11:47:35.389Z,7.50
2022-12-20T11:50:27.668Z,10.32
2022-12-20T11:53:00.765Z,7.40
2022-12-20T11:55:33.965Z,6.55
2022-12-20T11:58:19.657Z,5.25
2022-12-20T12:01:05.022Z,6.97
2022-12-20T12:03:41.704Z,8.23
2022-12-20T12:06:24.269Z,6.40
2022-12-20T12:09:16.138Z,10.93
2022-12-20T12:12:06.859Z,8.57
2022-12-20T12:18:04.372Z,6.72
2022-12-20T12:20:49.476Z,7.03
2022-12-20T12:23:22.531Z,11.60
2022-12-20T12:25:50.483Z,6.75
2022-12-20T12:28:21.141Z,9.23
2022-12-20T12:30:56.051Z,7.47
2022-12-20T12:33:38.431Z,10.20
2022-12-20T12:36:37.185Z,7.22
2022-12-20T12:39:57.514Z,8.88
2022-12-20T12:42:45.657Z,7.13
2022-12-20T12:45:42.459Z,8.05
2022-12-20T12:48:22.678Z,8.00
2022-12-20T12:50:57.165Z,9.90
2022-12-20T12:53:36.605Z,7.65
2022-12-20T12:56:46.643Z,7.65
2022-12-20T12:59:42.143Z,8.25
2022-12-20T13:02:16.957Z,6.93
2022-12-20T13:07:34.381Z,9.38
2022-12-20T13:10:25.779Z,7.28
2022-12-20T13:12:53.905Z,6.80
2022-12-20T13:15:24.184Z,7.55
2022-12-20T13:18:14.168Z,8.00
2022-12-20T13:20:42.755Z,6.25
2022-12-20T13:23:13.534Z,7.43
2022-12-20T13:25:46.426Z,8.45
2022-12-20T13:28:18.457Z,8.68
2022-12-20T13:31:06.496Z,7.00
2022-12-20T13:33:46.934Z,9.20
2022-12-20T13:36:19.373Z,10.15
2022-12-20T13:38:47.355Z,9.07
2022-12-20T13:41:34.434Z,12.20
2022-12-20T13:46:50.962Z,7.68
2022-12-20T13:49:43.935Z,9.88
2022-12-20T13:52:11.442Z,9.98
2022-12-20T13:54:47.110Z,7.95
2022-12-20T13:57:24.859Z,11.98
2022-12-20T14:00:00.204Z,13.10
2022-12-20T14:02:40.328Z,8.95
2022-12-20T14:05:20.401Z,13.20
2022-12-20T14:07:56.287Z,13.48
2022-12-20T14:10:26.621Z,13.05
2022-12-20T14:12:54.354Z,9.70
2022-12-20T14:15:33.912Z,8.68
2022-12-20T14:18:17.119Z,11.25
2022-12-20T14:20:45.593Z,8.85
2022-12-20T14:23:17.711Z,11.43
2022-12-20T14:25:54.225Z,13.18
2022-12-20T14:28:56.382Z,10.70
2022-12-20T14:31:32.733Z,13.65
2022-12-20T14:34:06.505Z,12.00
2022-12-20T14:36:34.795Z,11.75
2022-12-20T14:39:02.267Z,10.90
2022-12-20T14:41:36.530Z,12.80
2022-12-20T14:44:07.183Z,8.13
2022-12-20T14:49:33.202Z,10.25
2022-12-20T14:55:18.481Z,10.25
2022-12-20T14:57:52.181Z,8.95
2022-12-20T15:00:19.681Z,15.23
2022-12-20T15:02:57.166Z,9.05
2022-12-20T15:05:51.366Z,12.50
2022-12-20T15:08:34.565Z,12.65
2022-12-20T15:11:11.064Z,11.45
2022-12-20T15:13:52.901Z,12.63
2022-12-20T15:16:23.105Z,13.05
2022-12-20T15:18:58.752Z,10.93
2022-12-20T15:21:30.991Z,14.85
2022-12-20T15:24:01.255Z,14.65
2022-12-20T15:26:31.283Z,13.85
2022-12-20T15:28:58.857Z,11.85
2022-12-20T15:31:33.451Z,12.15
2022-12-20T15:34:10.804Z,17.35
2022-12-20T15:36:38.628Z,15.25
2022-12-20T15:39:14.144Z,15.70
2022-12-20T15:41:45.185Z,15.88
2022-12-20T15:44:19.375Z,14.95
2022-12-20T15:46:47.722Z,16.73
2022-12-20T15:49:21.497Z,16.10
2022-12-20T15:51:50.672Z,16.77
2022-12-20T15:54:38.683Z,15.65
2022-12-20T15:57:10.163Z,18.55
2022-12-20T16:02:30.811Z,21.58
2022-12-20T16:05:03.371Z,13.05
2022-12-20T16:07:31.371Z,22.23
2022-12-20T16:09:58.873Z,18.20
2022-12-20T16:12:29.915Z,16.65
2022-12-20T16:14:57.437Z,16.13
2022-12-20T16:17:25.409Z,17.42
2022-12-20T16:19:53.012Z,11.60
2022-12-20T16:22:23.011Z,14.15
2022-12-20T16:24:50.669Z,18.80
2022-12-20T16:27:18.355Z,15.73
2022-12-20T16:29:45.881Z,13.15
2022-12-20T16:32:22.113Z,14.65
2022-12-20T16:34:51.197Z,14.15
2022-12-20T16:37:19.522Z,19.30
2022-12-20T16:39:47.200Z,14.35
2022-12-20T16:42:17.550Z,16.48
2022-12-20T16:44:46.241Z,13.60
2022-12-20T16:47:15.030Z,15.07
2022-12-20T16:52:22.396Z,14.73
2022-12-20T16:54:51.187Z,19.40
2022-12-20T16:57:19.403Z,20.15
2022-12-20T17:02:30.660Z,23.88
2022-12-20T17:04:58.864Z,21.23
2022-12-20T17:07:26.513Z,20.88
2022-12-20T17:09:54.582Z,22.90
2022-12-20T17:12:23.491Z,21.80
2022-12-20T17:14:51.052Z,23.55
2022-12-20T17:17:18.839Z,24.20
2022-12-20T17:19:46.437Z,26.48
2022-12-20T17:22:25.009Z,32.35
2022-12-20T17:24:52.810Z,32.45
2022-12-20T17:27:20.336Z,42.17
2022-12-20T17:29:47.954Z,39.42
2022-12-20T17:32:26.113Z,54.50
2022-12-20T17:34:54.036Z,56.10
2022-12-20T17:37:21.806Z,33.60
2022-12-20T17:39:49.771Z,28.58
2022-12-20T17:42:17.353Z,24.95
2022-12-20T17:44:46.554Z,30.05
2022-12-20T17:47:14.235Z,17.00
2022-12-20T17:49:41.783Z,16.05
2022-12-20T17:52:14.943Z,16.30
2022-12-20T17:54:43.622Z,15.00
2022-12-20T17:57:17.525Z,17.33
2022-12-20T17:59:45.142Z,20.15
2022-12-20T18:02:20.938Z,19.88
2022-12-20T18:04:48.977Z,15.80
2022-12-20T18:07:16.428Z,17.40
2022-12-20T18:09:47.862Z,20.45
2022-12-20T18:12:15.713Z,16.33
2022-12-20T18:14:43.170Z,18.60
2022-12-20T18:17:11.261Z,18.27
2022-12-20T18:19:38.865Z,19.75
2022-12-20T18:22:06.784Z,21.95
2022-12-20T18:24:34.287Z,16.02
2022-12-20T18:29:55.217Z,17.60
2022-12-20T18:32:22.656Z,18.05
2022-12-20T18:37:34.610Z,15.45
2022-12-20T18:40:08.160Z,18.10
2022-12-20T18:42:57.535Z,13.57
2022-12-20T18:45:28.447Z,18.40
2022-12-20T18:47:55.932Z,18.38
2022-12-20T18:50:23.404Z,16.15
2022-12-20T18:52:51.032Z,20.58
2022-12-20T18:55:18.412Z,14.25
2022-12-20T18:57:45.868Z,14.50
2022-12-20T19:00:14.292Z,21.52
2022-12-20T19:02:41.759Z,16.95
2022-12-20T19:05:09.557Z,15.68
2022-12-20T19:07:36.921Z,17.92
2022-12-20T19:10:04.873Z,23.75
2022-12-20T19:12:32.423Z,17.40
2022-12-20T19:14:59.844Z,17.48
2022-12-20T19:17:27.286Z,16.42
2022-12-20T19:19:54.873Z,16.25
2022-12-20T19:22:22.277Z,16.58
2022-12-20T19:24:50.977Z,17.98
2022-12-20T19:27:18.507Z,18.73
2022-12-20T19:29:46.099Z,18.98
2022-12-20T19:32:13.601Z,17.33
2022-12-20T19:34:41.129Z,15.15
2022-12-20T19:37:08.615Z,15.82
2022-12-20T19:39:36.241Z,22.48
2022-12-20T19:42:24.324Z,16.70
2022-12-20T19:44:52.165Z,17.80
2022-12-20T19:47:19.631Z,13.82
2022-12-20T19:49:47.204Z,20.35
2022-12-20T19:52:28.645Z,19.02
2022-12-20T19:54:56.644Z,15.73
2022-12-20T19:57:24.531Z,18.02
2022-12-20T19:59:55.783Z,16.40
2022-12-20T20:02:23.775Z,16.00
2022-12-20T20:04:51.558Z,18.08
2022-12-20T20:07:20.261Z,15.63
2022-12-20T20:12:14.905Z,19.58
2022-12-20T20:14:48.721Z,18.33
2022-12-20T20:17:36.446Z,20.58
2022-12-20T20:20:05.312Z,15.45
2022-12-20T20:22:32.826Z,15.77
2022-12-20T20:25:00.316Z,16.38
2022-12-20T20:27:27.832Z,14.45
2022-12-20T20:30:02.845Z,14.05
2022-12-20T20:32:35.279Z,21.00
2022-12-20T20:35:02.932Z,14.43
2022-12-20T20:37:30.645Z,15.57
2022-12-20T20:39:58.036Z,18.15
2022-12-20T20:42:25.553Z,13.40
2022-12-20T20:44:53.021Z,17.60
2022-12-20T20:47:20.994Z,20.55
2022-12-20T20:49:55.809Z,19.27
2022-12-20T20:52:36.647Z,21.23
2022-12-20T20:55:04.633Z,15.75
2022-12-20T20:57:32.087Z,20.50
2022-12-20T20:59:59.885Z,16.08
2022-12-20T21:02:27.677Z,15.27
2022-12-20T21:05:35.791Z,18.33
2022-12-20T21:07:42.832Z,16.38
2022-12-20T21:10:10.637Z,19.52
2022-12-20T21:12:38.323Z,17.48
2022-12-20T21:15:24.376Z,18.73
2022-12-20T21:17:52.359Z,17.38
2022-12-20T21:20:25.662Z,15.65
2022-12-20T21:22:54.352Z,15.95
2022-12-20T21:25:21.774Z,16.63
2022-12-20T21:27:49.328Z,16.98
2022-12-20T21:30:16.840Z,15.65
2022-12-20T21:32:44.425Z,16.73
2022-12-20T21:35:12.474Z,16.10
2022-12-20T21:37:40.040Z,15.02
2022-12-20T21:40:08.306Z,18.08
2022-12-20T21:42:36.058Z,17.52
2022-12-20T21:45:03.467Z,22.90
2022-12-20T21:47:31.279Z,18.30
2022-12-20T21:49:58.857Z,17.08
2022-12-20T21:52:26.474Z,20.30
2022-12-20T21:54:53.898Z,15.45
2022-12-20T21:57:21.284Z,15.90
2022-12-20T21:59:48.728Z,18.23
2022-12-20T22:05:00.336Z,16.35
2022-12-20T22:07:27.852Z,17.48
2022-12-20T22:09:55.572Z,16.92
2022-12-20T22:12:23.042Z,16.10
2022-12-20T22:14:50.608Z,13.13
2022-12-20T22:17:17.976Z,13.68
2022-12-20T22:19:45.528Z,14.40
2022-12-20T22:22:12.891Z,16.15
2022-12-20T22:24:40.464Z,14.55
2022-12-20T22:27:11.579Z,14.23
2022-12-20T22:29:39.209Z,14.75
2022-12-20T22:32:06.812Z,13.52
2022-12-20T22:34:34.804Z,13.93
2022-12-20T22:37:02.235Z,14.40
2022-12-20T22:39:30.044Z,13.73
2022-12-20T22:41:57.498Z,14.40
2022-12-20T22:44:25.303Z,15.27
2022-12-20T22:49:34.055Z,19.45
2022-12-20T22:52:07.348Z,16.33
2022-12-20T22:54:35.805Z,14.27
2022-12-20T22:57:03.618Z,16.10
2022-12-20T22:59:31.323Z,15.20
2022-12-20T23:01:58.920Z,15.85
2022-12-20T23:04:26.740Z,16.10
2022-12-20T23:06:54.182Z,16.15
2022-12-20T23:09:34.545Z,17.90
2022-12-20T23:12:20.268Z,18.42
2022-12-20T23:15:06.297Z,16.80
2022-12-20T23:17:33.849Z,18.77
2022-12-20T23:20:19.556Z,15.30
2022-12-20T23:22:47.138Z,16.60
2022-12-20T23:25:17.425Z,15.98
2022-12-20T23:27:47.501Z,12.38
2022-12-20T23:30:18.439Z,15.75
2022-12-20T23:32:46.329Z,16.77
2022-12-20T23:35:16.478Z,14.68
2022-12-20T23:37:45.796Z,18.95
2022-12-20T23:40:14.795Z,13.95
2022-12-20T23:42:42.626Z,14.15
2022-12-20T23:45:11.040Z,15.55
2022-12-20T23:47:46.550Z,14.52
2022-12-20T23:50:14.199Z,16.95
2022-12-20T23:52:41.770Z,14.98
2022-12-20T23:55:09.952Z,17.83
2022-12-20T23:57:37.347Z,14.35
